Prinsendam — PBGH — position and weather

sailwx.info

Track history (hours):
 
Tides and Currents Weather Stations Pressure Air Temp Water Temp Dewpoint Dewpoint Depression Visibility Wind Speed Wind Dir Waves Ship Positions

Prinsendam

Operator: Holland America Line

Last reported at 2017-Aug-19 21:00 UTC. Time now 2017-Aug-20 13:40 UTC.
Position N 58°18' W 000°36'.

Type: Ship. MMSI: 244126000.

Wind from 300 at 32 knots

Barometer 1004.1 mb
Air temperature 14.5 ° C
Visibility: greater than 10.8 NM
Dewpoint 13.7 ° C
Water temperature 14.1 ° C

Date/timePositionNaut miles runAvg speedWind from/ knotsBaromVisibWave heightAir tempDewpointWater temp
2017-Aug-19 21:00N 58°18' W 000°36'4414.6 300 / 321004.110.8 14.513.714.1
2017-Aug-19 18:00N 57°36' W 000°12'20614.7 280 / 291003.510.8 15.014.216.0
2017-Aug-19 04:00N 54°18' E 001°30'12114.6 240 / 371005.110.8 17.316.817.2
2017-Aug-18 19:42N 52°49' E 003°49'314.8
2017-Aug-18 19:30N 52°47' E 003°52'714.7
2017-Aug-18 19:00N 52°41' E 003°59'714.7
2017-Aug-18 18:31N 52°35' E 004°06'714.1
2017-Aug-18 18:01N 52°31' E 004°15'713.5
2017-Aug-18 17:30N 52°29' E 004°26'510.4
2017-Aug-18 17:01N 52°28' E 004°34'1 2.5
2017-Aug-18 16:30N 52°28' E 004°36'1 2.4
2017-Aug-18 16:00N 52°28' E 004°38'5 9.1
2017-Aug-18 15:30N 52°26' E 004°45'4 8.3
2017-Aug-18 15:01N 52°25' E 004°52'3 5.6
2017-Aug-18 14:30N 52°23' E 004°55'0 0.0
2017-Aug-18 13:30N 52°23' E 004°55'0 0.0
2017-Aug-18 13:00N 52°23' E 004°55'0 0.0
2017-Aug-18 12:29N 52°23' E 004°55'0 0.0
2017-Aug-18 12:00N 52°23' E 004°55'0 0.0
2017-Aug-18 11:30N 52°23' E 004°55'0 0.0
2017-Aug-18 11:00N 52°23' E 004°55'0 0.0
2017-Aug-18 10:30N 52°23' E 004°55'0 0.0
2017-Aug-18 10:00N 52°23' E 004°55'0 0.0
2017-Aug-18 09:29N 52°23' E 004°55'0 0.0
2017-Aug-18 08:59N 52°23' E 004°55'0 0.0
2017-Aug-18 08:30N 52°23' E 004°55'0 0.0
2017-Aug-18 08:00N 52°23' E 004°55'0 0.0
2017-Aug-18 07:29N 52°23' E 004°55'0 0.0
2017-Aug-18 06:59N 52°23' E 004°55'0 0.0
2017-Aug-18 06:30N 52°23' E 004°55'0 0.0
2017-Aug-18 05:59N 52°23' E 004°55'0 0.0
2017-Aug-18 05:30N 52°23' E 004°55'0 0.0
2017-Aug-18 04:59N 52°23' E 004°55'0 0.0
2017-Aug-18 04:30N 52°23' E 004°55'0 0.0
2017-Aug-18 03:59N 52°23' E 004°55'0 0.8
2017-Aug-18 03:31N 52°23' E 004°54'3 6.9
2017-Aug-18 03:01N 52°25' E 004°50'4 8.3
2017-Aug-18 02:31N 52°26' E 004°43'4 8.3
2017-Aug-18 02:00N 52°28' E 004°37'1 1.4
2017-Aug-18 01:30N 52°28' E 004°36'2 3.8
2017-Aug-18 01:01N 52°28' E 004°33'3 6.4
2017-Aug-18 00:30N 52°28' E 004°28'4 8.5
2017-Aug-18 00:00N 52°28' E 004°21'5 9.3
2017-Aug-17 23:30N 52°29' E 004°13'5 9.0
2017-Aug-17 23:00N 52°28' E 004°06'5 9.4
2017-Aug-17 22:30N 52°27' E 003°58'5 9.5
2017-Aug-17 21:59N 52°26' E 003°51'5 9.5
2017-Aug-17 21:30N 52°25' E 003°43'1121.0
2017-Aug-17 21:00N 52°18' E 003°30'647.4 220 / 251009.8 5.4 18.017.218.0
2017-Aug-17 20:52N 52°23' E 003°34'610.0
2017-Aug-17 20:17N 52°19' E 003°27'310.3
2017-Aug-17 19:57N 52°17' E 003°23'3410.9
2017-Aug-17 16:53N 51°53' E 002°45'410.4
2017-Aug-17 16:28N 51°49' E 002°40'510.3
2017-Aug-17 16:00N 51°46' E 002°35'510.1
2017-Aug-17 15:30N 51°42' E 002°30'510.2
2017-Aug-17 15:00N 51°38' E 002°25'510.3
2017-Aug-17 14:30N 51°34' E 002°20'510.8
2017-Aug-17 14:00N 51°30' E 002°14'611.1
2017-Aug-17 13:30N 51°25' E 002°09'510.9
2017-Aug-17 13:00N 51°20' E 002°07'611.0
2017-Aug-17 12:30N 51°15' E 002°06'611.4
2017-Aug-17 12:00N 51°12' E 001°59'510.9
2017-Aug-17 11:30N 51°09' E 001°51'5 9.8
2017-Aug-17 11:00N 51°06' E 001°44'510.5
2017-Aug-17 10:30N 51°02' E 001°39'510.7
2017-Aug-17 10:00N 50°59' E 001°33'610.9
2017-Aug-17 09:30N 50°54' E 001°28'3510.9
2017-Aug-17 06:14N 50°29' E 000°48'312.1
2017-Aug-17 05:59N 50°28' E 000°43'1212.1
2017-Aug-17 04:59N 50°24' E 000°25'612.6
2017-Aug-17 04:30N 50°22' E 000°16'612.8
2017-Aug-17 04:00N 50°20' E 000°07'3169.4
2017-Aug-17 04:00N 50°18' E 000°06'711.7 210 / 301011.1 5.4 17.516.717.3
2017-Aug-17 03:23N 50°18' W 000°05'612.9
2017-Aug-17 02:55N 50°16' W 000°14'2513.0
2017-Aug-17 01:00N 50°09' W 000°51'713.4
2017-Aug-17 00:30N 50°06' W 001°01'611.7
2017-Aug-17 00:00N 50°04' W 001°10'611.2
2017-Aug-16 23:30N 50°03' W 001°18'510.6
2017-Aug-16 23:01N 50°01' W 001°26'510.1
2017-Aug-16 22:30N 49°59' W 001°33'5 9.6
2017-Aug-16 22:01N 49°57' W 001°40'5 9.6
2017-Aug-16 21:30N 49°54' W 001°46'5 9.3
2017-Aug-16 21:01N 49°51' W 001°51'4 8.8
2017-Aug-16 20:30N 49°48' W 001°57'8 7.5
2017-Aug-16 19:28N 49°43' W 002°05'3 7.3
2017-Aug-16 19:00N 49°40' W 002°09'5 9.2
2017-Aug-16 18:30N 49°37' W 002°14'510.3
2017-Aug-16 18:00N 49°33' W 002°19'510.4
2017-Aug-16 17:30N 49°29' W 002°23'5 9.4
2017-Aug-16 17:00N 49°25' W 002°28'2 3.3
2017-Aug-16 16:30N 49°26' W 002°30'2 3.4
2017-Aug-16 16:00N 49°28' W 002°31'0 0.2
2017-Aug-16 15:28N 49°28' W 002°31'0 0.1
2017-Aug-16 14:58N 49°28' W 002°31'0 0.0
2017-Aug-16 14:28N 49°28' W 002°31'0 0.0
2017-Aug-16 13:58N 49°28' W 002°31'0 0.0
2017-Aug-16 13:28N 49°28' W 002°31'0 0.0
2017-Aug-16 12:58N 49°28' W 002°31'0 0.0
2017-Aug-16 12:28N 49°28' W 002°31'0 0.0
2017-Aug-16 11:58N 49°28' W 002°31'0 0.0
2017-Aug-16 11:22N 49°28' W 002°31'0 0.0
2017-Aug-16 10:55N 49°28' W 002°31'0 0.1
2017-Aug-16 10:28N 49°28' W 002°31'0 0.0
2017-Aug-16 09:55N 49°28' W 002°31'0 0.1
2017-Aug-16 09:22N 49°28' W 002°31'0 0.2
2017-Aug-16 08:58N 49°28' W 002°31'0 0.1
2017-Aug-16 08:28N 49°28' W 002°31'0 0.1
2017-Aug-16 07:19N 49°28' W 002°31'11 3.4
2017-Aug-16 04:00N 49°30' W 002°48'1819.4 220 / 131018.310.8 16.015.216.5
2017-Aug-16 03:05N 49°47' W 002°54'115.3
2017-Aug-16 03:00N 49°48' W 002°54'815.1
2017-Aug-16 02:30N 49°56' W 002°56'612.8
2017-Aug-16 02:00N 49°59' W 002°47'5329.6
2017-Aug-16 02:00N 49°54' W 002°48'1219.4 250 / 101018.4 5.4 16.016.017.3
2017-Aug-16 01:22N 50°02' W 002°34'613.7
2017-Aug-16 00:54N 50°05' W 002°25'614.2
2017-Aug-16 00:31N 50°10' W 002°22'612.0
2017-Aug-16 00:00N 50°16' W 002°21'510.9
2017-Aug-15 23:30N 50°22' W 002°20'710.9
2017-Aug-15 22:51N 50°29' W 002°19'410.6
2017-Aug-15 22:30N 50°32' W 002°20'4 8.6
2017-Aug-15 22:00N 50°35' W 002°25'1 2.1
2017-Aug-15 21:28N 50°34' W 002°26'0 0.0
2017-Aug-15 20:49N 50°34' W 002°26'0 0.0
2017-Aug-15 20:28N 50°34' W 002°26'0 0.0
2017-Aug-15 19:58N 50°34' W 002°26'0 0.0
2017-Aug-15 19:28N 50°34' W 002°26'0 0.0
2017-Aug-15 19:01N 50°34' W 002°26'0 0.0
2017-Aug-15 18:31N 50°34' W 002°26'0 0.0
2017-Aug-15 17:58N 50°34' W 002°26'0 0.0
2017-Aug-15 17:31N 50°34' W 002°26'0 0.0
2017-Aug-15 17:00N 50°34' W 002°26'0 0.0
2017-Aug-15 16:27N 50°34' W 002°26'0 0.0
2017-Aug-15 15:58N 50°34' W 002°26'0 0.0
2017-Aug-15 15:27N 50°34' W 002°26'0 0.0
2017-Aug-15 14:58N 50°34' W 002°26'0 0.0
2017-Aug-15 14:25N 50°34' W 002°26'0 0.0
2017-Aug-15 13:58N 50°34' W 002°26'0 0.0
2017-Aug-15 13:30N 50°34' W 002°26'0 0.0
2017-Aug-15 13:00N 50°34' W 002°26'0 0.0
2017-Aug-15 12:28N 50°34' W 002°26'0 0.0
2017-Aug-15 11:58N 50°34' W 002°26'0 0.0
2017-Aug-15 11:30N 50°34' W 002°26'4 1.8
2017-Aug-15 09:00N 50°30' W 002°24'0 0.0 300 / 141013.410.8 18.016.417.7
2017-Aug-15 08:00N 50°30' W 002°24'415.5 300 / 151013.410.8 18.016.417.7
2017-Aug-15 07:43N 50°34' W 002°26'0 0.0
2017-Aug-15 07:18N 50°34' W 002°26'0 0.0
2017-Aug-15 07:00N 50°34' W 002°26'0 0.2
2017-Aug-15 06:29N 50°34' W 002°26'2 5.2
2017-Aug-15 06:00N 50°36' W 002°23'4 7.4
2017-Aug-15 05:30N 50°32' W 002°20'5 9.2
2017-Aug-15 05:00N 50°28' W 002°20'5 9.9
2017-Aug-15 04:30N 50°26' W 002°27'611.0
2017-Aug-15 04:00N 50°24' W 002°35'611.4
2017-Aug-15 03:30N 50°22' W 002°43'611.5
2017-Aug-15 03:00N 50°20' W 002°52'611.8
2017-Aug-15 02:30N 50°17' W 002°60'612.0
2017-Aug-15 02:00N 50°15' W 003°09'611.9
2017-Aug-15 01:30N 50°13' W 003°17'612.1
2017-Aug-15 01:00N 50°11' W 003°26'5371.9
2017-Aug-15 01:00N 50°12' W 003°18'1223.8 290 / 71012.210.8 16.514.117.0
2017-Aug-15 00:30N 50°08' W 003°35'612.5
2017-Aug-15 00:00N 50°07' W 003°45'612.3
2017-Aug-14 23:30N 50°05' W 003°54'612.0
2017-Aug-14 23:00N 50°03' W 004°03'612.0
2017-Aug-14 22:30N 50°01' W 004°11'713.3
2017-Aug-14 22:00N 50°00' W 004°22'2148.1
2017-Aug-14 22:00N 50°00' W 004°18'1021.5 160 / 51012.2 5.4 16.016.016.0
2017-Aug-14 21:30N 49°58' W 004°34'816.4
2017-Aug-14 21:00N 49°56' W 004°46'4224.6
2017-Aug-14 21:00N 49°54' W 004°42'1021.5 220 / 101012.2 5.4 16.016.016.0
2017-Aug-14 20:30N 49°53' W 004°58'816.2
2017-Aug-14 20:00N 49°51' W 005°10'1115.7
2017-Aug-14 19:20N 49°52' W 005°26'513.4
2017-Aug-14 19:00N 49°48' W 005°30'5661.7 220 / 151012.2 5.4 16.016.016.0
2017-Aug-14 18:59N 49°52' W 005°35'30 1.9
2017-Aug-14 03:27N 50°12' W 006°10'5 8.9
2017-Aug-14 02:55N 50°17' W 006°09'4 8.7
2017-Aug-14 02:26N 50°21' W 006°07'4 8.9
2017-Aug-14 02:00N 50°24' W 006°05'6398.2
2017-Aug-14 02:00N 50°18' W 006°06'1122.2 180 / 251015.2 5.4 15.515.516.8
2017-Aug-14 01:30N 50°28' W 006°02'5 9.1
2017-Aug-14 01:00N 50°33' W 005°60'5 9.3
2017-Aug-14 00:30N 50°37' W 005°57'5 9.4
2017-Aug-14 00:00N 50°41' W 005°54'5 9.5
2017-Aug-13 23:30N 50°46' W 005°51'5 9.4
2017-Aug-13 23:00N 50°50' W 005°48'5 9.2
2017-Aug-13 22:30N 50°54' W 005°45'5 9.0
2017-Aug-13 22:00N 50°58' W 005°43'5 9.4
2017-Aug-13 21:30N 51°03' W 005°41'5 9.8
2017-Aug-13 20:59N 51°08' W 005°38'510.1
2017-Aug-13 20:30N 51°12' W 005°35'510.2
2017-Aug-13 20:00N 51°17' W 005°31'710.5
2017-Aug-13 19:19N 51°23' W 005°26'811.0
2017-Aug-13 18:34N 51°30' W 005°20'111.2
2017-Aug-13 18:30N 51°31' W 005°19'511.0
2017-Aug-13 18:00N 51°36' W 005°15'5 9.2
2017-Aug-13 17:30N 51°40' W 005°11'4 8.4
2017-Aug-13 17:00N 51°42' W 005°05'2 3.6
2017-Aug-13 16:30N 51°42' W 005°02'0 0.1
2017-Aug-13 16:00N 51°42' W 005°02'0 0.2
2017-Aug-13 15:30N 51°42' W 005°02'0 0.0
2017-Aug-13 15:00N 51°42' W 005°02'0 0.0
2017-Aug-13 14:30N 51°42' W 005°02'0 0.0
2017-Aug-13 14:00N 51°42' W 005°02'0 0.0
2017-Aug-13 13:30N 51°42' W 005°02'0 0.0
2017-Aug-13 13:00N 51°42' W 005°02'0 0.0
2017-Aug-13 12:30N 51°42' W 005°02'0 0.0
2017-Aug-13 12:00N 51°42' W 005°02'0 0.0
2017-Aug-13 11:30N 51°42' W 005°02'0 0.0
2017-Aug-13 11:00N 51°42' W 005°02'0 0.0
2017-Aug-13 10:30N 51°42' W 005°02'0 0.0
2017-Aug-13 10:00N 51°42' W 005°02'0 0.2
2017-Aug-13 09:30N 51°42' W 005°02'0 0.0
2017-Aug-13 09:00N 51°42' W 005°02'0 0.0
2017-Aug-13 08:30N 51°42' W 005°02'0 0.1
2017-Aug-13 08:00N 51°42' W 005°02'1 2.8
2017-Aug-13 07:31N 51°42' W 005°04'4 8.8
2017-Aug-13 07:01N 51°40' W 005°11'611.2
2017-Aug-13 06:31N 51°36' W 005°18'713.5
2017-Aug-13 06:00N 51°37' W 005°29'816.6
2017-Aug-13 05:30N 51°37' W 005°42'815.9
2017-Aug-13 05:00N 51°38' W 005°55'4239.5
2017-Aug-13 05:00N 51°42' W 005°54'3 7.0 300 / 91019.210.8 14.013.214.1
2017-Aug-13 04:30N 51°45' W 005°55'917.3
2017-Aug-13 04:00N 51°54' W 005°52'917.2
2017-Aug-13 03:30N 52°02' W 005°51'817.0
2017-Aug-13 03:00N 52°11' W 005°49'816.8
2017-Aug-13 02:30N 52°19' W 005°47'816.0
2017-Aug-13 02:00N 52°27' W 005°45'815.5
2017-Aug-13 01:30N 52°35' W 005°43'8314.8
2017-Aug-12 19:55N 53°57' W 005°21'718.2
2017-Aug-12 19:30N 54°04' W 005°20'918.4
2017-Aug-12 19:01N 54°13' W 005°18'918.2
2017-Aug-12 18:31N 54°22' W 005°16'917.3
2017-Aug-12 18:01N 54°31' W 005°18'917.2
2017-Aug-12 17:31N 54°39' W 005°22'815.0
2017-Aug-12 17:01N 54°43' W 005°33'815.3
2017-Aug-12 16:30N 54°42' W 005°46'611.3
2017-Aug-12 15:56N 54°37' W 005°54'0 0.2
2017-Aug-12 13:10N 54°37' W 005°54'0 0.0
2017-Aug-12 12:55N 54°37' W 005°54'0 0.0
2017-Aug-12 12:28N 54°37' W 005°54'0 0.0
2017-Aug-12 11:58N 54°37' W 005°54'0 0.0
2017-Aug-12 11:16N 54°37' W 005°54'0 0.0
2017-Aug-12 10:58N 54°37' W 005°54'0 0.0
2017-Aug-12 10:25N 54°37' W 005°54'0 0.0
2017-Aug-12 09:58N 54°37' W 005°54'0 0.0
2017-Aug-12 09:28N 54°37' W 005°54'0 0.0
2017-Aug-12 08:58N 54°37' W 005°54'0 0.0
2017-Aug-12 08:28N 54°37' W 005°54'0 0.0
2017-Aug-12 07:58N 54°37' W 005°54'0 0.0
2017-Aug-12 07:31N 54°37' W 005°54'0 0.0
2017-Aug-12 06:58N 54°37' W 005°54'1 1.1
2017-Aug-12 06:30N 54°37' W 005°54'2 4.1
2017-Aug-12 06:00N 54°39' W 005°52'510.8
2017-Aug-12 05:30N 54°42' W 005°44'510.0
2017-Aug-12 05:00N 54°44' W 005°36'611.2
2017-Aug-12 04:30N 54°43' W 005°26'713.5
2017-Aug-12 04:00N 54°37' W 005°20'815.4
2017-Aug-12 03:30N 54°30' W 005°15'816.8
2017-Aug-12 03:00N 54°22' W 005°11'12735.4
2017-Aug-12 03:00N 54°12' W 005°00'4 9.2 260 / 251010.010.8 15.015.015.0
2017-Aug-12 02:30N 54°15' W 005°06'815.4
2017-Aug-12 02:00N 54°08' W 005°02'5110.1
2017-Aug-11 21:00N 53°36' W 003°54'7 7.9 230 / 251010.910.8 16.016.017.0
2017-Aug-11 20:03N 53°34' W 003°42'110.2
2017-Aug-11 20:00N 53°34' W 003°41'510.2
2017-Aug-11 19:30N 53°33' W 003°33'510.5
2017-Aug-11 19:00N 53°33' W 003°24'4 8.8
2017-Aug-11 18:30N 53°31' W 003°17'611.9
2017-Aug-11 18:00N 53°31' W 003°07'612.9
2017-Aug-11 17:30N 53°26' W 003°01'1 2.4
2017-Aug-11 16:55N 53°24' W 003°00'0 0.0
2017-Aug-11 16:28N 53°24' W 003°00'0 0.0
2017-Aug-11 15:58N 53°24' W 003°00'0 0.0
2017-Aug-11 15:25N 53°24' W 003°00'0 0.0
2017-Aug-11 14:58N 53°24' W 003°00'0 0.0
2017-Aug-11 14:25N 53°24' W 003°00'0 0.0
2017-Aug-11 13:25N 53°24' W 003°00'0 0.0
2017-Aug-11 12:58N 53°24' W 003°00'0 0.0
2017-Aug-11 12:25N 53°24' W 003°00'0 0.0
2017-Aug-11 11:58N 53°24' W 003°00'0 0.0
2017-Aug-11 11:25N 53°24' W 003°00'0 0.0
2017-Aug-11 10:58N 53°24' W 003°00'0 0.0
2017-Aug-11 10:28N 53°24' W 003°00'0 0.0
2017-Aug-11 09:55N 53°24' W 003°00'0 0.0
2017-Aug-11 09:28N 53°24' W 003°00'0 0.0
2017-Aug-11 08:58N 53°24' W 003°00'0 0.0
2017-Aug-11 08:28N 53°24' W 003°00'0 0.0
2017-Aug-11 07:58N 53°24' W 003°00'0 0.0
2017-Aug-11 07:26N 53°24' W 003°00'1 3.0
2017-Aug-11 07:00N 53°26' W 003°01'611.7
2017-Aug-11 06:30N 53°31' W 003°06'510.4
2017-Aug-11 06:00N 53°31' W 003°15'612.2
2017-Aug-11 05:30N 53°31' W 003°25'612.0
2017-Aug-11 05:00N 53°31' W 003°35'714.2
2017-Aug-11 04:30N 53°31' W 003°47'714.3
2017-Aug-11 04:00N 53°31' W 003°59'713.0
2017-Aug-11 03:30N 53°31' W 004°10'7 9.2
2017-Aug-11 02:43N 53°31' W 004°22'2 9.1
2017-Aug-11 02:29N 53°31' W 004°26'3 5.2
2017-Aug-11 02:00N 53°30' W 004°30'1811.1 230 / 101017.710.8 15.013.316.0
2017-Aug-11 00:24N 53°21' W 004°55'46 2.8
2017-Aug-10 08:00N 53°18' W 006°12'7 3.0 280 / 81026.110.8 12.012.016.0
2017-Aug-10 05:34N 53°21' W 006°01'3414.8
2017-Aug-10 03:18N 53°50' W 005°32'515.7
2017-Aug-10 03:00N 53°54' W 005°29'815.9
2017-Aug-10 02:30N 54°02' W 005°24'815.5
2017-Aug-10 02:00N 54°09' W 005°19'9853.8
2017-Aug-10 02:00N 54°00' W 005°24'1734.6 310 / 201024.710.8 13.013.013.6
2017-Aug-10 01:30N 54°16' W 005°14'714.5
2017-Aug-10 01:00N 54°23' W 005°12'715.0
2017-Aug-10 00:30N 54°30' W 005°15'815.4
2017-Aug-10 00:00N 54°38' W 005°19'815.8
2017-Aug-09 23:30N 54°45' W 005°23'815.9
2017-Aug-09 23:00N 54°52' W 005°29'815.4
2017-Aug-09 22:30N 54°59' W 005°35'2116.4
2017-Aug-09 21:13N 55°15' W 005°59'419.0
2017-Aug-09 21:00N 55°18' W 006°04'182.3
2017-Aug-09 21:00N 55°18' W 006°06'   320 / 121024.610.8 15.013.315.0
Track history (hours):
 
Tides and Currents Weather Stations Pressure Air Temp Water Temp Dewpoint Dewpoint Depression Visibility Wind Speed Wind Dir Waves Ship Positions

Prinsendam

Operator: Holland America Line

Last reported at 2017-Aug-19 21:00 UTC. Time now 2017-Aug-20 13:40 UTC.
Position N 58°18' W 000°36'.

Type: Ship. MMSI: 244126000.

Wind from 300 at 32 knots

Barometer 1004.1 mb
Air temperature 14.5 ° C
Visibility: greater than 10.8 NM
Dewpoint 13.7 ° C
Water temperature 14.1 ° C

Date/timePositionNaut miles runAvg speedWind from/ knotsBaromVisibWave heightAir tempDewpointWater temp
2017-Aug-19 21:00N 58°18' W 000°36'4414.6 300 / 321004.110.8 14.513.714.1
2017-Aug-19 18:00N 57°36' W 000°12'20614.7 280 / 291003.510.8 15.014.216.0
2017-Aug-19 04:00N 54°18' E 001°30'12114.6 240 / 371005.110.8 17.316.817.2
2017-Aug-18 19:42N 52°49' E 003°49'314.8
2017-Aug-18 19:30N 52°47' E 003°52'714.7
2017-Aug-18 19:00N 52°41' E 003°59'714.7
2017-Aug-18 18:31N 52°35' E 004°06'714.1
2017-Aug-18 18:01N 52°31' E 004°15'713.5
2017-Aug-18 17:30N 52°29' E 004°26'510.4
2017-Aug-18 17:01N 52°28' E 004°34'1 2.5
2017-Aug-18 16:30N 52°28' E 004°36'1 2.4
2017-Aug-18 16:00N 52°28' E 004°38'5 9.1
2017-Aug-18 15:30N 52°26' E 004°45'4 8.3
2017-Aug-18 15:01N 52°25' E 004°52'3 5.6
2017-Aug-18 14:30N 52°23' E 004°55'0 0.0
2017-Aug-18 13:30N 52°23' E 004°55'0 0.0
2017-Aug-18 13:00N 52°23' E 004°55'0 0.0
2017-Aug-18 12:29N 52°23' E 004°55'0 0.0
2017-Aug-18 12:00N 52°23' E 004°55'0 0.0
2017-Aug-18 11:30N 52°23' E 004°55'0 0.0
2017-Aug-18 11:00N 52°23' E 004°55'0 0.0
2017-Aug-18 10:30N 52°23' E 004°55'0 0.0
2017-Aug-18 10:00N 52°23' E 004°55'0 0.0
2017-Aug-18 09:29N 52°23' E 004°55'0 0.0
2017-Aug-18 08:59N 52°23' E 004°55'0 0.0
2017-Aug-18 08:30N 52°23' E 004°55'0 0.0
2017-Aug-18 08:00N 52°23' E 004°55'0 0.0
2017-Aug-18 07:29N 52°23' E 004°55'0 0.0
2017-Aug-18 06:59N 52°23' E 004°55'0 0.0
2017-Aug-18 06:30N 52°23' E 004°55'0 0.0
2017-Aug-18 05:59N 52°23' E 004°55'0 0.0
2017-Aug-18 05:30N 52°23' E 004°55'0 0.0
2017-Aug-18 04:59N 52°23' E 004°55'0 0.0
2017-Aug-18 04:30N 52°23' E 004°55'0 0.0
2017-Aug-18 03:59N 52°23' E 004°55'0 0.8
2017-Aug-18 03:31N 52°23' E 004°54'3 6.9
2017-Aug-18 03:01N 52°25' E 004°50'4 8.3
2017-Aug-18 02:31N 52°26' E 004°43'4 8.3
2017-Aug-18 02:00N 52°28' E 004°37'1 1.4
2017-Aug-18 01:30N 52°28' E 004°36'2 3.8
2017-Aug-18 01:01N 52°28' E 004°33'3 6.4
2017-Aug-18 00:30N 52°28' E 004°28'4 8.5
2017-Aug-18 00:00N 52°28' E 004°21'5 9.3
2017-Aug-17 23:30N 52°29' E 004°13'5 9.0
2017-Aug-17 23:00N 52°28' E 004°06'5 9.4
2017-Aug-17 22:30N 52°27' E 003°58'5 9.5
2017-Aug-17 21:59N 52°26' E 003°51'5 9.5
2017-Aug-17 21:30N 52°25' E 003°43'1121.0
2017-Aug-17 21:00N 52°18' E 003°30'647.4 220 / 251009.8 5.4 18.017.218.0
2017-Aug-17 20:52N 52°23' E 003°34'610.0
2017-Aug-17 20:17N 52°19' E 003°27'310.3
2017-Aug-17 19:57N 52°17' E 003°23'3410.9
2017-Aug-17 16:53N 51°53' E 002°45'410.4
2017-Aug-17 16:28N 51°49' E 002°40'510.3
2017-Aug-17 16:00N 51°46' E 002°35'510.1
2017-Aug-17 15:30N 51°42' E 002°30'510.2
2017-Aug-17 15:00N 51°38' E 002°25'510.3
2017-Aug-17 14:30N 51°34' E 002°20'510.8
2017-Aug-17 14:00N 51°30' E 002°14'611.1
2017-Aug-17 13:30N 51°25' E 002°09'510.9
2017-Aug-17 13:00N 51°20' E 002°07'611.0
2017-Aug-17 12:30N 51°15' E 002°06'611.4
2017-Aug-17 12:00N 51°12' E 001°59'510.9
2017-Aug-17 11:30N 51°09' E 001°51'5 9.8
2017-Aug-17 11:00N 51°06' E 001°44'510.5
2017-Aug-17 10:30N 51°02' E 001°39'510.7
2017-Aug-17 10:00N 50°59' E 001°33'610.9
2017-Aug-17 09:30N 50°54' E 001°28'3510.9
2017-Aug-17 06:14N 50°29' E 000°48'312.1
2017-Aug-17 05:59N 50°28' E 000°43'1212.1
2017-Aug-17 04:59N 50°24' E 000°25'612.6
2017-Aug-17 04:30N 50°22' E 000°16'612.8
2017-Aug-17 04:00N 50°20' E 000°07'3169.4
2017-Aug-17 04:00N 50°18' E 000°06'711.7 210 / 301011.1 5.4 17.516.717.3
2017-Aug-17 03:23N 50°18' W 000°05'612.9
2017-Aug-17 02:55N 50°16' W 000°14'2513.0
2017-Aug-17 01:00N 50°09' W 000°51'713.4
2017-Aug-17 00:30N 50°06' W 001°01'611.7
2017-Aug-17 00:00N 50°04' W 001°10'611.2
2017-Aug-16 23:30N 50°03' W 001°18'510.6
2017-Aug-16 23:01N 50°01' W 001°26'510.1
2017-Aug-16 22:30N 49°59' W 001°33'5 9.6
2017-Aug-16 22:01N 49°57' W 001°40'5 9.6
2017-Aug-16 21:30N 49°54' W 001°46'5 9.3
2017-Aug-16 21:01N 49°51' W 001°51'4 8.8
2017-Aug-16 20:30N 49°48' W 001°57'8 7.5
2017-Aug-16 19:28N 49°43' W 002°05'3 7.3
2017-Aug-16 19:00N 49°40' W 002°09'5 9.2
2017-Aug-16 18:30N 49°37' W 002°14'510.3
2017-Aug-16 18:00N 49°33' W 002°19'510.4
2017-Aug-16 17:30N 49°29' W 002°23'5 9.4
2017-Aug-16 17:00N 49°25' W 002°28'2 3.3
2017-Aug-16 16:30N 49°26' W 002°30'2 3.4
2017-Aug-16 16:00N 49°28' W 002°31'0 0.2
2017-Aug-16 15:28N 49°28' W 002°31'0 0.1
2017-Aug-16 14:58N 49°28' W 002°31'0 0.0
2017-Aug-16 14:28N 49°28' W 002°31'0 0.0
2017-Aug-16 13:58N 49°28' W 002°31'0 0.0
2017-Aug-16 13:28N 49°28' W 002°31'0 0.0
2017-Aug-16 12:58N 49°28' W 002°31'0 0.0
2017-Aug-16 12:28N 49°28' W 002°31'0 0.0
2017-Aug-16 11:58N 49°28' W 002°31'0 0.0
2017-Aug-16 11:22N 49°28' W 002°31'0 0.0
2017-Aug-16 10:55N 49°28' W 002°31'0 0.1
2017-Aug-16 10:28N 49°28' W 002°31'0 0.0
2017-Aug-16 09:55N 49°28' W 002°31'0 0.1
2017-Aug-16 09:22N 49°28' W 002°31'0 0.2
2017-Aug-16 08:58N 49°28' W 002°31'0 0.1
2017-Aug-16 08:28N 49°28' W 002°31'0 0.1
2017-Aug-16 07:19N 49°28' W 002°31'11 3.4
2017-Aug-16 04:00N 49°30' W 002°48'1819.4 220 / 131018.310.8 16.015.216.5
2017-Aug-16 03:05N 49°47' W 002°54'115.3
2017-Aug-16 03:00N 49°48' W 002°54'815.1
2017-Aug-16 02:30N 49°56' W 002°56'612.8
2017-Aug-16 02:00N 49°59' W 002°47'5329.6
2017-Aug-16 02:00N 49°54' W 002°48'1219.4 250 / 101018.4 5.4 16.016.017.3
2017-Aug-16 01:22N 50°02' W 002°34'613.7
2017-Aug-16 00:54N 50°05' W 002°25'614.2
2017-Aug-16 00:31N 50°10' W 002°22'612.0
2017-Aug-16 00:00N 50°16' W 002°21'510.9
2017-Aug-15 23:30N 50°22' W 002°20'710.9
2017-Aug-15 22:51N 50°29' W 002°19'410.6
2017-Aug-15 22:30N 50°32' W 002°20'4 8.6
2017-Aug-15 22:00N 50°35' W 002°25'1 2.1
2017-Aug-15 21:28N 50°34' W 002°26'0 0.0
2017-Aug-15 20:49N 50°34' W 002°26'0 0.0
2017-Aug-15 20:28N 50°34' W 002°26'0 0.0
2017-Aug-15 19:58N 50°34' W 002°26'0 0.0
2017-Aug-15 19:28N 50°34' W 002°26'0 0.0
2017-Aug-15 19:01N 50°34' W 002°26'0 0.0
2017-Aug-15 18:31N 50°34' W 002°26'0 0.0
2017-Aug-15 17:58N 50°34' W 002°26'0 0.0
2017-Aug-15 17:31N 50°34' W 002°26'0 0.0
2017-Aug-15 17:00N 50°34' W 002°26'0 0.0
2017-Aug-15 16:27N 50°34' W 002°26'0 0.0
2017-Aug-15 15:58N 50°34' W 002°26'0 0.0
2017-Aug-15 15:27N 50°34' W 002°26'0 0.0
2017-Aug-15 14:58N 50°34' W 002°26'0 0.0
2017-Aug-15 14:25N 50°34' W 002°26'0 0.0
2017-Aug-15 13:58N 50°34' W 002°26'0 0.0
2017-Aug-15 13:30N 50°34' W 002°26'0 0.0
2017-Aug-15 13:00N 50°34' W 002°26'0 0.0
2017-Aug-15 12:28N 50°34' W 002°26'0 0.0
2017-Aug-15 11:58N 50°34' W 002°26'0 0.0
2017-Aug-15 11:30N 50°34' W 002°26'4 1.8
2017-Aug-15 09:00N 50°30' W 002°24'0 0.0 300 / 141013.410.8 18.016.417.7
2017-Aug-15 08:00N 50°30' W 002°24'415.5 300 / 151013.410.8 18.016.417.7
2017-Aug-15 07:43N 50°34' W 002°26'0 0.0
2017-Aug-15 07:18N 50°34' W 002°26'0 0.0
2017-Aug-15 07:00N 50°34' W 002°26'0 0.2
2017-Aug-15 06:29N 50°34' W 002°26'2 5.2
2017-Aug-15 06:00N 50°36' W 002°23'4 7.4
2017-Aug-15 05:30N 50°32' W 002°20'5 9.2
2017-Aug-15 05:00N 50°28' W 002°20'5 9.9
2017-Aug-15 04:30N 50°26' W 002°27'611.0
2017-Aug-15 04:00N 50°24' W 002°35'611.4
2017-Aug-15 03:30N 50°22' W 002°43'611.5
2017-Aug-15 03:00N 50°20' W 002°52'611.8
2017-Aug-15 02:30N 50°17' W 002°60'612.0
2017-Aug-15 02:00N 50°15' W 003°09'611.9
2017-Aug-15 01:30N 50°13' W 003°17'612.1
2017-Aug-15 01:00N 50°11' W 003°26'5371.9
2017-Aug-15 01:00N 50°12' W 003°18'1223.8 290 / 71012.210.8 16.514.117.0
2017-Aug-15 00:30N 50°08' W 003°35'612.5
2017-Aug-15 00:00N 50°07' W 003°45'612.3
2017-Aug-14 23:30N 50°05' W 003°54'612.0
2017-Aug-14 23:00N 50°03' W 004°03'612.0
2017-Aug-14 22:30N 50°01' W 004°11'713.3
2017-Aug-14 22:00N 50°00' W 004°22'2148.1
2017-Aug-14 22:00N 50°00' W 004°18'1021.5 160 / 51012.2 5.4 16.016.016.0
2017-Aug-14 21:30N 49°58' W 004°34'816.4
2017-Aug-14 21:00N 49°56' W 004°46'4224.6
2017-Aug-14 21:00N 49°54' W 004°42'1021.5 220 / 101012.2 5.4 16.016.016.0
2017-Aug-14 20:30N 49°53' W 004°58'816.2
2017-Aug-14 20:00N 49°51' W 005°10'1115.7
2017-Aug-14 19:20N 49°52' W 005°26'513.4
2017-Aug-14 19:00N 49°48' W 005°30'5661.7 220 / 151012.2 5.4 16.016.016.0
2017-Aug-14 18:59N 49°52' W 005°35'30 1.9
2017-Aug-14 03:27N 50°12' W 006°10'5 8.9
2017-Aug-14 02:55N 50°17' W 006°09'4 8.7
2017-Aug-14 02:26N 50°21' W 006°07'4 8.9
2017-Aug-14 02:00N 50°24' W 006°05'6398.2
2017-Aug-14 02:00N 50°18' W 006°06'1122.2 180 / 251015.2 5.4 15.515.516.8
2017-Aug-14 01:30N 50°28' W 006°02'5 9.1
2017-Aug-14 01:00N 50°33' W 005°60'5 9.3
2017-Aug-14 00:30N 50°37' W 005°57'5 9.4
2017-Aug-14 00:00N 50°41' W 005°54'5 9.5
2017-Aug-13 23:30N 50°46' W 005°51'5 9.4
2017-Aug-13 23:00N 50°50' W 005°48'5 9.2
2017-Aug-13 22:30N 50°54' W 005°45'5 9.0
2017-Aug-13 22:00N 50°58' W 005°43'5 9.4
2017-Aug-13 21:30N 51°03' W 005°41'5 9.8
2017-Aug-13 20:59N 51°08' W 005°38'510.1
2017-Aug-13 20:30N 51°12' W 005°35'510.2
2017-Aug-13 20:00N 51°17' W 005°31'710.5
2017-Aug-13 19:19N 51°23' W 005°26'811.0
2017-Aug-13 18:34N 51°30' W 005°20'111.2
2017-Aug-13 18:30N 51°31' W 005°19'511.0
2017-Aug-13 18:00N 51°36' W 005°15'5 9.2
2017-Aug-13 17:30N 51°40' W 005°11'4 8.4
2017-Aug-13 17:00N 51°42' W 005°05'2 3.6
2017-Aug-13 16:30N 51°42' W 005°02'0 0.1
2017-Aug-13 16:00N 51°42' W 005°02'0 0.2
2017-Aug-13 15:30N 51°42' W 005°02'0 0.0
2017-Aug-13 15:00N 51°42' W 005°02'0 0.0
2017-Aug-13 14:30N 51°42' W 005°02'0 0.0
2017-Aug-13 14:00N 51°42' W 005°02'0 0.0
2017-Aug-13 13:30N 51°42' W 005°02'0 0.0
2017-Aug-13 13:00N 51°42' W 005°02'0 0.0
2017-Aug-13 12:30N 51°42' W 005°02'0 0.0
2017-Aug-13 12:00N 51°42' W 005°02'0 0.0
2017-Aug-13 11:30N 51°42' W 005°02'0 0.0
2017-Aug-13 11:00N 51°42' W 005°02'0 0.0
2017-Aug-13 10:30N 51°42' W 005°02'0 0.0
2017-Aug-13 10:00N 51°42' W 005°02'0 0.2
2017-Aug-13 09:30N 51°42' W 005°02'0 0.0
2017-Aug-13 09:00N 51°42' W 005°02'0 0.0
2017-Aug-13 08:30N 51°42' W 005°02'0 0.1
2017-Aug-13 08:00N 51°42' W 005°02'1 2.8
2017-Aug-13 07:31N 51°42' W 005°04'4 8.8
2017-Aug-13 07:01N 51°40' W 005°11'611.2
2017-Aug-13 06:31N 51°36' W 005°18'713.5
2017-Aug-13 06:00N 51°37' W 005°29'816.6
2017-Aug-13 05:30N 51°37' W 005°42'815.9
2017-Aug-13 05:00N 51°38' W 005°55'4239.5
2017-Aug-13 05:00N 51°42' W 005°54'3 7.0 300 / 91019.210.8 14.013.214.1
2017-Aug-13 04:30N 51°45' W 005°55'917.3
2017-Aug-13 04:00N 51°54' W 005°52'917.2
2017-Aug-13 03:30N 52°02' W 005°51'817.0
2017-Aug-13 03:00N 52°11' W 005°49'816.8
2017-Aug-13 02:30N 52°19' W 005°47'816.0
2017-Aug-13 02:00N 52°27' W 005°45'815.5
2017-Aug-13 01:30N 52°35' W 005°43'8314.8
2017-Aug-12 19:55N 53°57' W 005°21'718.2
2017-Aug-12 19:30N 54°04' W 005°20'918.4
2017-Aug-12 19:01N 54°13' W 005°18'918.2
2017-Aug-12 18:31N 54°22' W 005°16'917.3
2017-Aug-12 18:01N 54°31' W 005°18'917.2
2017-Aug-12 17:31N 54°39' W 005°22'815.0
2017-Aug-12 17:01N 54°43' W 005°33'815.3
2017-Aug-12 16:30N 54°42' W 005°46'611.3
2017-Aug-12 15:56N 54°37' W 005°54'0 0.2
2017-Aug-12 13:10N 54°37' W 005°54'0 0.0
2017-Aug-12 12:55N 54°37' W 005°54'0 0.0
2017-Aug-12 12:28N 54°37' W 005°54'0 0.0
2017-Aug-12 11:58N 54°37' W 005°54'0 0.0
2017-Aug-12 11:16N 54°37' W 005°54'0 0.0
2017-Aug-12 10:58N 54°37' W 005°54'0 0.0
2017-Aug-12 10:25N 54°37' W 005°54'0 0.0
2017-Aug-12 09:58N 54°37' W 005°54'0 0.0
2017-Aug-12 09:28N 54°37' W 005°54'0 0.0
2017-Aug-12 08:58N 54°37' W 005°54'0 0.0
2017-Aug-12 08:28N 54°37' W 005°54'0 0.0
2017-Aug-12 07:58N 54°37' W 005°54'0 0.0
2017-Aug-12 07:31N 54°37' W 005°54'0 0.0
2017-Aug-12 06:58N 54°37' W 005°54'1 1.1
2017-Aug-12 06:30N 54°37' W 005°54'2 4.1
2017-Aug-12 06:00N 54°39' W 005°52'510.8
2017-Aug-12 05:30N 54°42' W 005°44'510.0
2017-Aug-12 05:00N 54°44' W 005°36'611.2
2017-Aug-12 04:30N 54°43' W 005°26'713.5
2017-Aug-12 04:00N 54°37' W 005°20'815.4
2017-Aug-12 03:30N 54°30' W 005°15'816.8
2017-Aug-12 03:00N 54°22' W 005°11'12735.4
2017-Aug-12 03:00N 54°12' W 005°00'4 9.2 260 / 251010.010.8 15.015.015.0
2017-Aug-12 02:30N 54°15' W 005°06'815.4
2017-Aug-12 02:00N 54°08' W 005°02'5110.1
2017-Aug-11 21:00N 53°36' W 003°54'7 7.9 230 / 251010.910.8 16.016.017.0
2017-Aug-11 20:03N 53°34' W 003°42'110.2
2017-Aug-11 20:00N 53°34' W 003°41'510.2
2017-Aug-11 19:30N 53°33' W 003°33'510.5
2017-Aug-11 19:00N 53°33' W 003°24'4 8.8
2017-Aug-11 18:30N 53°31' W 003°17'611.9
2017-Aug-11 18:00N 53°31' W 003°07'612.9
2017-Aug-11 17:30N 53°26' W 003°01'1 2.4
2017-Aug-11 16:55N 53°24' W 003°00'0 0.0
2017-Aug-11 16:28N 53°24' W 003°00'0 0.0
2017-Aug-11 15:58N 53°24' W 003°00'0 0.0
2017-Aug-11 15:25N 53°24' W 003°00'0 0.0
2017-Aug-11 14:58N 53°24' W 003°00'0 0.0
2017-Aug-11 14:25N 53°24' W 003°00'0 0.0
2017-Aug-11 13:25N 53°24' W 003°00'0 0.0
2017-Aug-11 12:58N 53°24' W 003°00'0 0.0
2017-Aug-11 12:25N 53°24' W 003°00'0 0.0
2017-Aug-11 11:58N 53°24' W 003°00'0 0.0
2017-Aug-11 11:25N 53°24' W 003°00'0 0.0
2017-Aug-11 10:58N 53°24' W 003°00'0 0.0
2017-Aug-11 10:28N 53°24' W 003°00'0 0.0
2017-Aug-11 09:55N 53°24' W 003°00'0 0.0
2017-Aug-11 09:28N 53°24' W 003°00'0 0.0
2017-Aug-11 08:58N 53°24' W 003°00'0 0.0
2017-Aug-11 08:28N 53°24' W 003°00'0 0.0
2017-Aug-11 07:58N 53°24' W 003°00'0 0.0
2017-Aug-11 07:26N 53°24' W 003°00'1 3.0
2017-Aug-11 07:00N 53°26' W 003°01'611.7
2017-Aug-11 06:30N 53°31' W 003°06'510.4
2017-Aug-11 06:00N 53°31' W 003°15'612.2
2017-Aug-11 05:30N 53°31' W 003°25'612.0
2017-Aug-11 05:00N 53°31' W 003°35'714.2
2017-Aug-11 04:30N 53°31' W 003°47'714.3
2017-Aug-11 04:00N 53°31' W 003°59'713.0
2017-Aug-11 03:30N 53°31' W 004°10'7 9.2
2017-Aug-11 02:43N 53°31' W 004°22'2 9.1
2017-Aug-11 02:29N 53°31' W 004°26'3 5.2
2017-Aug-11 02:00N 53°30' W 004°30'1811.1 230 / 101017.710.8 15.013.316.0
2017-Aug-11 00:24N 53°21' W 004°55'46 2.8
2017-Aug-10 08:00N 53°18' W 006°12'7 3.0 280 / 81026.110.8 12.012.016.0
2017-Aug-10 05:34N 53°21' W 006°01'3414.8
2017-Aug-10 03:18N 53°50' W 005°32'515.7
2017-Aug-10 03:00N 53°54' W 005°29'815.9
2017-Aug-10 02:30N 54°02' W 005°24'815.5
2017-Aug-10 02:00N 54°09' W 005°19'9853.8
2017-Aug-10 02:00N 54°00' W 005°24'1734.6 310 / 201024.710.8 13.013.013.6
2017-Aug-10 01:30N 54°16' W 005°14'714.5
2017-Aug-10 01:00N 54°23' W 005°12'715.0
2017-Aug-10 00:30N 54°30' W 005°15'815.4
2017-Aug-10 00:00N 54°38' W 005°19'815.8
2017-Aug-09 23:30N 54°45' W 005°23'815.9
2017-Aug-09 23:00N 54°52' W 005°29'815.4
2017-Aug-09 22:30N 54°59' W 005°35'2116.4
2017-Aug-09 21:13N 55°15' W 005°59'419.0
2017-Aug-09 21:00N 55°18' W 006°04'182.3
2017-Aug-09 21:00N 55°18' W 006°06'   320 / 121024.610.8 15.013.315.0

Dump ship's entire track history